WEATHER/FLIGHT PLANNING

Hattiesburg Radar

 

 

 

 

Weather Links

Flight Planning Links

 

METAR

2018/09/22 00:53 KHBG 220053Z AUTO 00000KT 10SM FEW048 26/22 A3002 RMK AO2 SLP164 T02610222 TSNO

TAF

2018/09/21 18:45 TAF KHBG 211742Z 2118/2218 13005KT P6SM VCTS SCT040CB FM220000 VRB03KT P6SM SCT100